sensor_id;sensor_type;location;lat;lon;timestamp;temperature;humidity
64951;DHT22;51482;47.014;7.652;2024-01-30T00:00:03;2.40;99.90
64951;DHT22;51482;47.014;7.652;2024-01-30T00:02:30;3.00;99.90
64951;DHT22;51482;47.014;7.652;2024-01-30T00:04:56;3.50;99.90
64951;DHT22;51482;47.014;7.652;2024-01-30T00:07:21;3.60;99.90
64951;DHT22;51482;47.014;7.652;2024-01-30T00:09:47;3.50;99.90
64951;DHT22;51482;47.014;7.652;2024-01-30T00:12:16;3.10;99.90
64951;DHT22;51482;47.014;7.652;2024-01-30T00:14:42;3.20;99.90
64951;DHT22;51482;47.014;7.652;2024-01-30T00:17:08;3.20;99.90
64951;DHT22;51482;47.014;7.652;2024-01-30T00:19:34;3.40;99.90
64951;DHT22;51482;47.014;7.652;2024-01-30T00:21:59;2.90;99.90
64951;DHT22;51482;47.014;7.652;2024-01-30T00:24:25;3.00;99.90
64951;DHT22;51482;47.014;7.652;2024-01-30T00:26:50;3.20;99.90
64951;DHT22;51482;47.014;7.652;2024-01-30T00:29:17;2.70;99.90
64951;DHT22;51482;47.014;7.652;2024-01-30T00:31:45;2.70;99.90
64951;DHT22;51482;47.014;7.652;2024-01-30T00:34:11;2.70;99.90
64951;DHT22;51482;47.014;7.652;2024-01-30T00:36:37;2.20;99.90
64951;DHT22;51482;47.014;7.652;2024-01-30T00:39:02;2.70;99.90
64951;DHT22;51482;47.014;7.652;2024-01-30T00:41:32;2.50;99.90
64951;DHT22;51482;47.014;7.652;2024-01-30T00:43:57;2.40;99.90
64951;DHT22;51482;47.014;7.652;2024-01-30T00:46:23;2.60;99.90
64951;DHT22;51482;47.014;7.652;2024-01-30T00:48:48;2.60;99.90
64951;DHT22;51482;47.014;7.652;2024-01-30T00:51:14;3.00;99.90
64951;DHT22;51482;47.014;7.652;2024-01-30T00:53:40;2.50;99.90
64951;DHT22;51482;47.014;7.652;2024-01-30T00:56:07;2.50;99.90
64951;DHT22;51482;47.014;7.652;2024-01-30T00:58:33;3.00;99.90
64951;DHT22;51482;47.014;7.652;2024-01-30T01:00:58;2.50;99.90
64951;DHT22;51482;47.014;7.652;2024-01-30T01:03:24;2.90;99.90
64951;DHT22;51482;47.014;7.652;2024-01-30T01:05:49;2.90;99.90
64951;DHT22;51482;47.014;7.652;2024-01-30T01:08:15;2.40;99.90
64951;DHT22;51482;47.014;7.652;2024-01-30T01:10:40;2.50;99.90
64951;DHT22;51482;47.014;7.652;2024-01-30T01:13:06;2.50;99.90
64951;DHT22;51482;47.014;7.652;2024-01-30T01:15:31;1.90;99.90
64951;DHT22;51482;47.014;7.652;2024-01-30T01:17:57;2.80;99.90
64951;DHT22;51482;47.014;7.652;2024-01-30T01:20:22;2.20;99.90
64951;DHT22;51482;47.014;7.652;2024-01-30T01:22:48;2.80;99.90
64951;DHT22;51482;47.014;7.652;2024-01-30T01:25:14;1.90;99.90
64951;DHT22;51482;47.014;7.652;2024-01-30T01:27:39;2.30;99.90
64951;DHT22;51482;47.014;7.652;2024-01-30T01:30:08;2.80;99.90
64951;DHT22;51482;47.014;7.652;2024-01-30T01:32:35;2.20;99.90
64951;DHT22;51482;47.014;7.652;2024-01-30T01:35:00;2.30;99.90
64951;DHT22;51482;47.014;7.652;2024-01-30T01:37:26;2.40;99.90
64951;DHT22;51482;47.014;7.652;2024-01-30T01:39:52;2.60;99.90
64951;DHT22;51482;47.014;7.652;2024-01-30T01:42:17;2.20;99.90
64951;DHT22;51482;47.014;7.652;2024-01-30T01:44:43;1.60;99.90
64951;DHT22;51482;47.014;7.652;2024-01-30T01:47:08;2.20;99.90
64951;DHT22;51482;47.014;7.652;2024-01-30T01:49:34;2.60;99.90
64951;DHT22;51482;47.014;7.652;2024-01-30T01:52:00;2.20;99.90
64951;DHT22;51482;47.014;7.652;2024-01-30T01:54:26;2.70;99.90
64951;DHT22;51482;47.014;7.652;2024-01-30T01:56:53;1.80;99.90
64951;DHT22;51482;47.014;7.652;2024-01-30T01:59:20;1.70;99.90
64951;DHT22;51482;47.014;7.652;2024-01-30T02:01:47;1.90;99.90
64951;DHT22;51482;47.014;7.652;2024-01-30T02:04:15;2.00;99.90
64951;DHT22;51482;47.014;7.652;2024-01-30T02:06:41;2.00;99.90
64951;DHT22;51482;47.014;7.652;2024-01-30T02:09:06;2.70;99.90
64951;DHT22;51482;47.014;7.652;2024-01-30T02:11:32;2.10;99.90
64951;DHT22;51482;47.014;7.652;2024-01-30T02:14:05;2.60;99.90
64951;DHT22;51482;47.014;7.652;2024-01-30T02:16:31;2.00;99.90
64951;DHT22;51482;47.014;7.652;2024-01-30T02:18:57;2.20;99.90
64951;DHT22;51482;47.014;7.652;2024-01-30T02:21:23;2.60;99.90
64951;DHT22;51482;47.014;7.652;2024-01-30T02:23:48;1.50;99.90
64951;DHT22;51482;47.014;7.652;2024-01-30T02:26:14;2.60;99.90
64951;DHT22;51482;47.014;7.652;2024-01-30T02:28:40;2.20;99.90
64951;DHT22;51482;47.014;7.652;2024-01-30T02:31:06;2.70;99.90
64951;DHT22;51482;47.014;7.652;2024-01-30T02:33:31;2.10;99.90
64951;DHT22;51482;47.014;7.652;2024-01-30T02:35:57;2.70;99.90
64951;DHT22;51482;47.014;7.652;2024-01-30T02:38:23;2.10;99.90
64951;DHT22;51482;47.014;7.652;2024-01-30T02:40:49;1.70;99.90
64951;DHT22;51482;47.014;7.652;2024-01-30T02:43:16;2.10;99.90
64951;DHT22;51482;47.014;7.652;2024-01-30T02:45:41;2.60;99.90
64951;DHT22;51482;47.014;7.652;2024-01-30T02:48:07;2.70;99.90
64951;DHT22;51482;47.014;7.652;2024-01-30T02:50:33;2.20;99.90
64951;DHT22;51482;47.014;7.652;2024-01-30T02:52:58;2.60;99.90
64951;DHT22;51482;47.014;7.652;2024-01-30T02:55:24;2.10;99.90
64951;DHT22;51482;47.014;7.652;2024-01-30T02:57:49;2.50;99.90
64951;DHT22;51482;47.014;7.652;2024-01-30T03:00:15;2.10;99.90
64951;DHT22;51482;47.014;7.652;2024-01-30T03:02:40;2.40;99.90
64951;DHT22;51482;47.014;7.652;2024-01-30T03:05:07;2.20;99.90
64951;DHT22;51482;47.014;7.652;2024-01-30T03:07:33;2.10;99.90
64951;DHT22;51482;47.014;7.652;2024-01-30T03:09:59;2.10;99.90
64951;DHT22;51482;47.014;7.652;2024-01-30T03:12:25;2.10;99.90
64951;DHT22;51482;47.014;7.652;2024-01-30T03:14:50;2.30;99.90
64951;DHT22;51482;47.014;7.652;2024-01-30T03:17:17;2.40;99.90
64951;DHT22;51482;47.014;7.652;2024-01-30T03:19:42;2.10;99.90
64951;DHT22;51482;47.014;7.652;2024-01-30T03:22:08;2.60;99.90
64951;DHT22;51482;47.014;7.652;2024-01-30T03:24:33;2.20;99.90
64951;DHT22;51482;47.014;7.652;2024-01-30T03:26:59;1.50;99.90
64951;DHT22;51482;47.014;7.652;2024-01-30T03:29:24;2.30;99.90
64951;DHT22;51482;47.014;7.652;2024-01-30T03:31:50;2.60;99.90
64951;DHT22;51482;47.014;7.652;2024-01-30T03:34:15;2.60;99.90
64951;DHT22;51482;47.014;7.652;2024-01-30T03:36:41;2.50;99.90
64951;DHT22;51482;47.014;7.652;2024-01-30T03:39:07;2.20;99.90
64951;DHT22;51482;47.014;7.652;2024-01-30T03:41:32;2.50;99.90
64951;DHT22;51482;47.014;7.652;2024-01-30T03:43:58;1.80;99.90
64951;DHT22;51482;47.014;7.652;2024-01-30T03:46:24;1.50;99.90
64951;DHT22;51482;47.014;7.652;2024-01-30T03:48:49;2.00;99.90
64951;DHT22;51482;47.014;7.652;2024-01-30T03:51:15;2.50;99.90
64951;DHT22;51482;47.014;7.652;2024-01-30T03:53:42;2.00;99.90
64951;DHT22;51482;47.014;7.652;2024-01-30T03:56:08;1.60;99.90
64951;DHT22;51482;47.014;7.652;2024-01-30T03:58:34;2.30;99.90
64951;DHT22;51482;47.014;7.652;2024-01-30T04:00:59;2.40;99.90
64951;DHT22;51482;47.014;7.652;2024-01-30T04:03:25;2.30;99.90
64951;DHT22;51482;47.014;7.652;2024-01-30T04:05:53;1.50;99.90
64951;DHT22;51482;47.014;7.652;2024-01-30T04:08:19;2.30;99.90
64951;DHT22;51482;47.014;7.652;2024-01-30T04:10:45;1.80;99.90
64951;DHT22;51482;47.014;7.652;2024-01-30T04:13:11;2.30;99.90
64951;DHT22;51482;47.014;7.652;2024-01-30T04:15:37;2.10;99.90
64951;DHT22;51482;47.014;7.652;2024-01-30T04:18:02;1.20;99.90
64951;DHT22;51482;47.014;7.652;2024-01-30T04:20:29;2.10;99.90
64951;DHT22;51482;47.014;7.652;2024-01-30T04:22:55;2.30;99.90
64951;DHT22;51482;47.014;7.652;2024-01-30T04:25:20;2.00;99.90
64951;DHT22;51482;47.014;7.652;2024-01-30T04:27:46;2.30;99.90
64951;DHT22;51482;47.014;7.652;2024-01-30T04:30:11;1.40;99.90
64951;DHT22;51482;47.014;7.652;2024-01-30T04:32:37;2.10;99.90
64951;DHT22;51482;47.014;7.652;2024-01-30T04:35:03;1.80;99.90
64951;DHT22;51482;47.014;7.652;2024-01-30T04:37:29;1.70;99.90
64951;DHT22;51482;47.014;7.652;2024-01-30T04:39:54;2.20;99.90
64951;DHT22;51482;47.014;7.652;2024-01-30T04:42:20;1.70;99.90
64951;DHT22;51482;47.014;7.652;2024-01-30T04:44:45;2.20;99.90
64951;DHT22;51482;47.014;7.652;2024-01-30T04:47:11;1.70;99.90
64951;DHT22;51482;47.014;7.652;2024-01-30T04:49:38;1.90;99.90
64951;DHT22;51482;47.014;7.652;2024-01-30T04:52:05;2.20;99.90
64951;DHT22;51482;47.014;7.652;2024-01-30T04:54:31;2.30;99.90
64951;DHT22;51482;47.014;7.652;2024-01-30T04:56:57;1.40;99.90
64951;DHT22;51482;47.014;7.652;2024-01-30T04:59:22;1.70;99.90
64951;DHT22;51482;47.014;7.652;2024-01-30T05:01:48;1.70;99.90
64951;DHT22;51482;47.014;7.652;2024-01-30T05:04:13;1.40;99.90
64951;DHT22;51482;47.014;7.652;2024-01-30T05:06:39;1.40;99.90
64951;DHT22;51482;47.014;7.652;2024-01-30T05:09:04;2.20;99.90
64951;DHT22;51482;47.014;7.652;2024-01-30T05:11:30;2.20;99.90
64951;DHT22;51482;47.014;7.652;2024-01-30T05:13:56;1.70;99.90
64951;DHT22;51482;47.014;7.652;2024-01-30T05:16:22;1.70;99.90
64951;DHT22;51482;47.014;7.652;2024-01-30T05:18:47;1.70;99.90
64951;DHT22;51482;47.014;7.652;2024-01-30T05:21:13;1.40;99.90
64951;DHT22;51482;47.014;7.652;2024-01-30T05:23:39;1.70;99.90
64951;DHT22;51482;47.014;7.652;2024-01-30T05:26:05;2.10;99.90
64951;DHT22;51482;47.014;7.652;2024-01-30T05:28:31;1.80;99.90
64951;DHT22;51482;47.014;7.652;2024-01-30T05:30:57;1.80;99.90
64951;DHT22;51482;47.014;7.652;2024-01-30T05:33:22;1.60;99.90
64951;DHT22;51482;47.014;7.652;2024-01-30T05:35:48;2.20;99.90
64951;DHT22;51482;47.014;7.652;2024-01-30T05:38:15;1.70;99.90
64951;DHT22;51482;47.014;7.652;2024-01-30T05:40:41;1.70;99.90
64951;DHT22;51482;47.014;7.652;2024-01-30T05:43:06;1.90;99.90
64951;DHT22;51482;47.014;7.652;2024-01-30T05:45:33;1.30;99.90
64951;DHT22;51482;47.014;7.652;2024-01-30T05:47:59;1.90;99.90
64951;DHT22;51482;47.014;7.652;2024-01-30T05:50:25;2.30;99.90
64951;DHT22;51482;47.014;7.652;2024-01-30T05:52:51;1.60;99.90
64951;DHT22;51482;47.014;7.652;2024-01-30T05:55:17;2.10;99.90
64951;DHT22;51482;47.014;7.652;2024-01-30T05:57:42;1.60;99.90
64951;DHT22;51482;47.014;7.652;2024-01-30T06:00:08;1.50;99.90
64951;DHT22;51482;47.014;7.652;2024-01-30T06:02:34;1.70;99.90
64951;DHT22;51482;47.014;7.652;2024-01-30T06:04:59;2.20;99.90
64951;DHT22;51482;47.014;7.652;2024-01-30T06:07:25;2.20;99.90
64951;DHT22;51482;47.014;7.652;2024-01-30T06:09:50;1.80;99.90
64951;DHT22;51482;47.014;7.652;2024-01-30T06:12:16;1.70;99.90
64951;DHT22;51482;47.014;7.652;2024-01-30T06:14:41;2.30;99.90
64951;DHT22;51482;47.014;7.652;2024-01-30T06:17:08;1.80;99.90
64951;DHT22;51482;47.014;7.652;2024-01-30T06:19:33;2.20;99.90
64951;DHT22;51482;47.014;7.652;2024-01-30T06:21:59;2.30;99.90
64951;DHT22;51482;47.014;7.652;2024-01-30T06:24:25;2.30;99.90
64951;DHT22;51482;47.014;7.652;2024-01-30T06:26:50;1.80;99.90
64951;DHT22;51482;47.014;7.652;2024-01-30T06:29:16;1.90;99.90
64951;DHT22;51482;47.014;7.652;2024-01-30T06:31:42;1.70;99.90
64951;DHT22;51482;47.014;7.652;2024-01-30T06:34:11;1.70;99.90
64951;DHT22;51482;47.014;7.652;2024-01-30T06:36:37;2.00;99.90
64951;DHT22;51482;47.014;7.652;2024-01-30T06:39:03;2.00;99.90
64951;DHT22;51482;47.014;7.652;2024-01-30T06:41:29;2.30;99.90
64951;DHT22;51482;47.014;7.652;2024-01-30T06:43:55;2.20;99.90
64951;DHT22;51482;47.014;7.652;2024-01-30T06:46:21;2.30;99.90
64951;DHT22;51482;47.014;7.652;2024-01-30T06:48:46;2.30;99.90
64951;DHT22;51482;47.014;7.652;2024-01-30T06:51:12;1.70;99.90
64951;DHT22;51482;47.014;7.652;2024-01-30T06:53:37;2.30;99.90
64951;DHT22;51482;47.014;7.652;2024-01-30T06:56:03;2.30;99.90
64951;DHT22;51482;47.014;7.652;2024-01-30T06:58:29;1.70;99.90
64951;DHT22;51482;47.014;7.652;2024-01-30T07:00:55;1.70;99.90
64951;DHT22;51482;47.014;7.652;2024-01-30T07:03:21;2.10;99.90
64951;DHT22;51482;47.014;7.652;2024-01-30T07:05:47;1.80;99.90
64951;DHT22;51482;47.014;7.652;2024-01-30T07:08:13;2.10;99.90
64951;DHT22;51482;47.014;7.652;2024-01-30T07:10:38;2.10;99.90
64951;DHT22;51482;47.014;7.652;2024-01-30T07:13:04;2.10;99.90
64951;DHT22;51482;47.014;7.652;2024-01-30T07:15:31;2.20;99.90
64951;DHT22;51482;47.014;7.652;2024-01-30T07:17:56;1.70;99.90
64951;DHT22;51482;47.014;7.652;2024-01-30T07:20:22;2.00;99.90
64951;DHT22;51482;47.014;7.652;2024-01-30T07:22:47;2.40;99.90
64951;DHT22;51482;47.014;7.652;2024-01-30T07:25:13;1.70;99.90
64951;DHT22;51482;47.014;7.652;2024-01-30T07:27:39;2.40;99.90
64951;DHT22;51482;47.014;7.652;2024-01-30T07:30:05;2.00;99.90
64951;DHT22;51482;47.014;7.652;2024-01-30T07:32:30;1.80;99.90
64951;DHT22;51482;47.014;7.652;2024-01-30T07:34:57;2.40;99.90
64951;DHT22;51482;47.014;7.652;2024-01-30T07:37:22;2.30;99.90
64951;DHT22;51482;47.014;7.652;2024-01-30T07:39:48;2.90;99.90
64951;DHT22;51482;47.014;7.652;2024-01-30T07:42:13;2.90;99.90
64951;DHT22;51482;47.014;7.652;2024-01-30T07:44:39;2.30;99.90
64951;DHT22;51482;47.014;7.652;2024-01-30T07:47:05;1.60;99.90
64951;DHT22;51482;47.014;7.652;2024-01-30T07:49:31;2.70;99.90
64951;DHT22;51482;47.014;7.652;2024-01-30T07:52:00;3.40;99.90
64951;DHT22;51482;47.014;7.652;2024-01-30T07:54:30;2.90;99.90
64951;DHT22;51482;47.014;7.652;2024-01-30T07:56:58;2.50;99.90
64951;DHT22;51482;47.014;7.652;2024-01-30T07:59:24;3.70;99.90
64951;DHT22;51482;47.014;7.652;2024-01-30T08:01:50;4.40;99.90
64951;DHT22;51482;47.014;7.652;2024-01-30T08:04:15;5.20;99.90
64951;DHT22;51482;47.014;7.652;2024-01-30T08:06:41;6.30;99.90
64951;DHT22;51482;47.014;7.652;2024-01-30T08:09:06;6.70;99.90
64951;DHT22;51482;47.014;7.652;2024-01-30T08:11:32;6.70;99.90
64951;DHT22;51482;47.014;7.652;2024-01-30T08:13:58;6.90;99.90
64951;DHT22;51482;47.014;7.652;2024-01-30T08:16:23;6.70;99.90
64951;DHT22;51482;47.014;7.652;2024-01-30T08:18:49;6.60;99.90
64951;DHT22;51482;47.014;7.652;2024-01-30T08:21:14;5.70;99.90
64951;DHT22;51482;47.014;7.652;2024-01-30T08:23:40;5.90;99.90
64951;DHT22;51482;47.014;7.652;2024-01-30T08:26:05;5.30;99.90
64951;DHT22;51482;47.014;7.652;2024-01-30T08:28:31;5.10;99.90
64951;DHT22;51482;47.014;7.652;2024-01-30T08:30:57;5.10;99.90
64951;DHT22;51482;47.014;7.652;2024-01-30T08:33:22;5.60;99.90
64951;DHT22;51482;47.014;7.652;2024-01-30T08:35:48;5.00;99.90
64951;DHT22;51482;47.014;7.652;2024-01-30T08:38:13;5.00;99.90
64951;DHT22;51482;47.014;7.652;2024-01-30T08:40:39;5.10;99.90
64951;DHT22;51482;47.014;7.652;2024-01-30T08:43:04;5.90;99.90
64951;DHT22;51482;47.014;7.652;2024-01-30T08:45:30;6.00;99.90
64951;DHT22;51482;47.014;7.652;2024-01-30T08:47:56;5.60;99.90
64951;DHT22;51482;47.014;7.652;2024-01-30T08:50:22;5.60;99.90
64951;DHT22;51482;47.014;7.652;2024-01-30T08:52:47;5.60;99.90
64951;DHT22;51482;47.014;7.652;2024-01-30T08:55:13;5.50;99.90
64951;DHT22;51482;47.014;7.652;2024-01-30T08:57:39;6.00;99.90
64951;DHT22;51482;47.014;7.652;2024-01-30T09:00:05;5.50;99.90
64951;DHT22;51482;47.014;7.652;2024-01-30T09:02:32;5.50;99.90
64951;DHT22;51482;47.014;7.652;2024-01-30T09:04:57;5.60;99.90
64951;DHT22;51482;47.014;7.652;2024-01-30T09:07:24;5.50;99.90
64951;DHT22;51482;47.014;7.652;2024-01-30T09:09:49;4.60;99.90
64951;DHT22;51482;47.014;7.652;2024-01-30T09:12:15;5.30;99.90
64951;DHT22;51482;47.014;7.652;2024-01-30T09:14:40;5.20;99.90
64951;DHT22;51482;47.014;7.652;2024-01-30T09:17:06;5.30;99.90
64951;DHT22;51482;47.014;7.652;2024-01-30T09:19:32;5.40;99.90
64951;DHT22;51482;47.014;7.652;2024-01-30T09:21:57;5.90;99.90
64951;DHT22;51482;47.014;7.652;2024-01-30T09:24:23;5.50;99.90
64951;DHT22;51482;47.014;7.652;2024-01-30T09:26:48;5.60;99.90
64951;DHT22;51482;47.014;7.652;2024-01-30T09:29:14;5.70;99.90
64951;DHT22;51482;47.014;7.652;2024-01-30T09:31:43;5.90;99.90
64951;DHT22;51482;47.014;7.652;2024-01-30T09:34:09;6.40;99.90
64951;DHT22;51482;47.014;7.652;2024-01-30T09:36:34;6.20;99.90
64951;DHT22;51482;47.014;7.652;2024-01-30T09:39:00;6.30;99.90
64951;DHT22;51482;47.014;7.652;2024-01-30T09:41:27;6.90;99.90
64951;DHT22;51482;47.014;7.652;2024-01-30T09:43:54;6.30;99.90
64951;DHT22;51482;47.014;7.652;2024-01-30T09:46:24;7.50;99.90
64951;DHT22;51482;47.014;7.652;2024-01-30T09:48:53;7.10;99.90
64951;DHT22;51482;47.014;7.652;2024-01-30T09:51:20;7.50;99.90
64951;DHT22;51482;47.014;7.652;2024-01-30T09:53:47;7.90;99.90
64951;DHT22;51482;47.014;7.652;2024-01-30T09:56:13;8.20;99.90
64951;DHT22;51482;47.014;7.652;2024-01-30T09:58:39;8.30;99.90
64951;DHT22;51482;47.014;7.652;2024-01-30T10:01:07;8.40;99.90
64951;DHT22;51482;47.014;7.652;2024-01-30T10:03:33;8.90;99.90
64951;DHT22;51482;47.014;7.652;2024-01-30T10:05:59;9.60;99.90
64951;DHT22;51482;47.014;7.652;2024-01-30T10:08:26;9.50;99.90
64951;DHT22;51482;47.014;7.652;2024-01-30T10:10:52;9.20;99.90
64951;DHT22;51482;47.014;7.652;2024-01-30T10:13:18;9.10;99.90
64951;DHT22;51482;47.014;7.652;2024-01-30T10:15:44;9.10;99.90
64951;DHT22;51482;47.014;7.652;2024-01-30T10:18:10;9.00;99.90
64951;DHT22;51482;47.014;7.652;2024-01-30T10:20:36;9.30;99.90
64951;DHT22;51482;47.014;7.652;2024-01-30T10:23:02;10.00;99.90
64951;DHT22;51482;47.014;7.652;2024-01-30T10:25:29;9.90;99.90
64951;DHT22;51482;47.014;7.652;2024-01-30T10:27:56;10.00;99.90
64951;DHT22;51482;47.014;7.652;2024-01-30T10:30:22;10.00;99.90
64951;DHT22;51482;47.014;7.652;2024-01-30T10:32:48;10.40;99.90
64951;DHT22;51482;47.014;7.652;2024-01-30T10:35:14;10.90;99.90
64951;DHT22;51482;47.014;7.652;2024-01-30T10:37:39;11.30;99.90
64951;DHT22;51482;47.014;7.652;2024-01-30T10:40:05;11.60;99.90
64951;DHT22;51482;47.014;7.652;2024-01-30T10:42:32;11.60;99.90
64951;DHT22;51482;47.014;7.652;2024-01-30T10:45:08;11.50;99.90
64951;DHT22;51482;47.014;7.652;2024-01-30T10:47:37;11.50;99.90
64951;DHT22;51482;47.014;7.652;2024-01-30T10:50:03;11.40;99.90
64951;DHT22;51482;47.014;7.652;2024-01-30T10:52:32;11.50;99.90
64951;DHT22;51482;47.014;7.652;2024-01-30T10:54:58;11.80;99.90
64951;DHT22;51482;47.014;7.652;2024-01-30T10:57:25;12.20;99.90
64951;DHT22;51482;47.014;7.652;2024-01-30T10:59:53;12.50;99.90
64951;DHT22;51482;47.014;7.652;2024-01-30T11:02:20;12.90;99.90
64951;DHT22;51482;47.014;7.652;2024-01-30T11:04:47;12.90;99.90
64951;DHT22;51482;47.014;7.652;2024-01-30T11:07:24;13.30;99.90
64951;DHT22;51482;47.014;7.652;2024-01-30T11:12:29;14.10;99.90
64951;DHT22;51482;47.014;7.652;2024-01-30T11:15:05;14.40;99.90
64951;DHT22;51482;47.014;7.652;2024-01-30T11:18:00;14.70;99.90
64951;DHT22;51482;47.014;7.652;2024-01-30T11:20:27;15.10;99.80
64951;DHT22;51482;47.014;7.652;2024-01-30T11:22:57;15.20;98.70
64951;DHT22;51482;47.014;7.652;2024-01-30T11:25:23;15.40;98.40
64951;DHT22;51482;47.014;7.652;2024-01-30T11:27:50;15.70;97.90
64951;DHT22;51482;47.014;7.652;2024-01-30T11:30:26;16.20;97.70
64951;DHT22;51482;47.014;7.652;2024-01-30T11:33:09;15.70;95.20
64951;DHT22;51482;47.014;7.652;2024-01-30T11:38:04;16.00;93.20
64951;DHT22;51482;47.014;7.652;2024-01-30T11:40:31;16.20;92.70
64951;DHT22;51482;47.014;7.652;2024-01-30T11:42:58;16.50;91.90
64951;DHT22;51482;47.014;7.652;2024-01-30T11:45:24;16.70;92.40
64951;DHT22;51482;47.014;7.652;2024-01-30T11:47:50;17.30;90.70
64951;DHT22;51482;47.014;7.652;2024-01-30T11:50:16;17.20;91.00
64951;DHT22;51482;47.014;7.652;2024-01-30T11:52:42;17.40;90.40
64951;DHT22;51482;47.014;7.652;2024-01-30T11:55:09;17.60;87.80
64951;DHT22;51482;47.014;7.652;2024-01-30T11:57:34;17.70;88.90
64951;DHT22;51482;47.014;7.652;2024-01-30T12:00:02;17.80;85.90
64951;DHT22;51482;47.014;7.652;2024-01-30T12:02:33;17.90;85.10
64951;DHT22;51482;47.014;7.652;2024-01-30T12:05:04;18.10;82.10
64951;DHT22;51482;47.014;7.652;2024-01-30T12:07:30;18.10;84.00
64951;DHT22;51482;47.014;7.652;2024-01-30T12:09:55;18.00;77.80
64951;DHT22;51482;47.014;7.652;2024-01-30T12:12:25;18.00;81.60
64951;DHT22;51482;47.014;7.652;2024-01-30T12:14:51;18.00;79.70
64951;DHT22;51482;47.014;7.652;2024-01-30T12:17:33;17.90;78.90
64951;DHT22;51482;47.014;7.652;2024-01-30T12:22:43;17.40;77.20
64951;DHT22;51482;47.014;7.652;2024-01-30T12:25:09;17.20;79.80
64951;DHT22;51482;47.014;7.652;2024-01-30T12:27:36;17.20;82.20
64951;DHT22;51482;47.014;7.652;2024-01-30T12:30:05;17.20;80.30
64951;DHT22;51482;47.014;7.652;2024-01-30T12:32:31;17.30;82.00
64951;DHT22;51482;47.014;7.652;2024-01-30T12:34:56;17.50;83.20
64951;DHT22;51482;47.014;7.652;2024-01-30T12:37:23;17.20;83.40
64951;DHT22;51482;47.014;7.652;2024-01-30T12:39:51;17.20;84.30
64951;DHT22;51482;47.014;7.652;2024-01-30T12:42:17;17.30;84.40
64951;DHT22;51482;47.014;7.652;2024-01-30T12:44:43;17.20;84.80
64951;DHT22;51482;47.014;7.652;2024-01-30T12:47:11;17.40;86.90
64951;DHT22;51482;47.014;7.652;2024-01-30T12:49:36;17.40;85.50
64951;DHT22;51482;47.014;7.652;2024-01-30T12:52:02;17.30;84.50
64951;DHT22;51482;47.014;7.652;2024-01-30T12:54:28;16.40;87.20
64951;DHT22;51482;47.014;7.652;2024-01-30T12:56:53;16.00;88.80
64951;DHT22;51482;47.014;7.652;2024-01-30T12:59:19;16.60;90.50
64951;DHT22;51482;47.014;7.652;2024-01-30T13:01:44;15.70;90.30
64951;DHT22;51482;47.014;7.652;2024-01-30T13:04:10;15.60;90.80
64951;DHT22;51482;47.014;7.652;2024-01-30T13:06:36;15.40;90.90
64951;DHT22;51482;47.014;7.652;2024-01-30T13:09:02;15.30;90.80
64951;DHT22;51482;47.014;7.652;2024-01-30T13:11:28;15.00;90.70
64951;DHT22;51482;47.014;7.652;2024-01-30T13:13:53;14.90;91.70
64951;DHT22;51482;47.014;7.652;2024-01-30T13:16:19;14.70;92.60
64951;DHT22;51482;47.014;7.652;2024-01-30T13:18:44;14.60;92.80
64951;DHT22;51482;47.014;7.652;2024-01-30T13:21:10;14.70;93.20
64951;DHT22;51482;47.014;7.652;2024-01-30T13:23:35;14.70;92.70
64951;DHT22;51482;47.014;7.652;2024-01-30T13:26:01;14.80;92.90
64951;DHT22;51482;47.014;7.652;2024-01-30T13:28:27;14.80;92.90
64951;DHT22;51482;47.014;7.652;2024-01-30T13:30:53;14.90;93.40
64951;DHT22;51482;47.014;7.652;2024-01-30T13:33:18;14.80;93.00
64951;DHT22;51482;47.014;7.652;2024-01-30T13:35:44;15.00;92.90
64951;DHT22;51482;47.014;7.652;2024-01-30T13:38:09;14.90;92.90
64951;DHT22;51482;47.014;7.652;2024-01-30T13:40:35;14.90;93.50
64951;DHT22;51482;47.014;7.652;2024-01-30T13:43:01;14.90;94.20
64951;DHT22;51482;47.014;7.652;2024-01-30T13:45:27;14.90;93.80
64951;DHT22;51482;47.014;7.652;2024-01-30T13:47:52;14.80;93.40
64951;DHT22;51482;47.014;7.652;2024-01-30T13:50:18;14.60;93.70
64951;DHT22;51482;47.014;7.652;2024-01-30T13:52:43;14.60;94.70
64951;DHT22;51482;47.014;7.652;2024-01-30T13:55:09;14.50;94.60
64951;DHT22;51482;47.014;7.652;2024-01-30T13:57:36;14.50;95.60
64951;DHT22;51482;47.014;7.652;2024-01-30T14:00:03;14.40;95.40
64951;DHT22;51482;47.014;7.652;2024-01-30T14:02:32;14.40;95.00
64951;DHT22;51482;47.014;7.652;2024-01-30T14:04:57;14.40;95.10
64951;DHT22;51482;47.014;7.652;2024-01-30T14:07:23;14.30;95.60
64951;DHT22;51482;47.014;7.652;2024-01-30T14:09:49;14.30;96.00
64951;DHT22;51482;47.014;7.652;2024-01-30T14:12:14;14.20;95.30
64951;DHT22;51482;47.014;7.652;2024-01-30T14:14:40;14.10;96.20
64951;DHT22;51482;47.014;7.652;2024-01-30T14:17:07;14.00;96.40
64951;DHT22;51482;47.014;7.652;2024-01-30T14:19:34;14.10;96.10
64951;DHT22;51482;47.014;7.652;2024-01-30T14:21:59;14.10;96.20
64951;DHT22;51482;47.014;7.652;2024-01-30T14:24:25;13.90;97.00
64951;DHT22;51482;47.014;7.652;2024-01-30T14:26:50;13.70;97.60
64951;DHT22;51482;47.014;7.652;2024-01-30T14:29:16;13.80;98.50
64951;DHT22;51482;47.014;7.652;2024-01-30T14:31:42;13.70;99.30
64951;DHT22;51482;47.014;7.652;2024-01-30T14:34:07;13.20;99.80
64951;DHT22;51482;47.014;7.652;2024-01-30T14:36:34;13.00;99.90
64951;DHT22;51482;47.014;7.652;2024-01-30T14:38:59;13.00;99.90
64951;DHT22;51482;47.014;7.652;2024-01-30T14:41:25;12.80;99.90
64951;DHT22;51482;47.014;7.652;2024-01-30T14:43:50;12.70;99.90
64951;DHT22;51482;47.014;7.652;2024-01-30T14:46:16;12.60;99.90
64951;DHT22;51482;47.014;7.652;2024-01-30T14:48:41;12.60;99.90
64951;DHT22;51482;47.014;7.652;2024-01-30T14:51:08;12.00;99.90
64951;DHT22;51482;47.014;7.652;2024-01-30T14:53:34;12.30;99.90
64951;DHT22;51482;47.014;7.652;2024-01-30T14:55:59;12.70;99.90
64951;DHT22;51482;47.014;7.652;2024-01-30T14:58:25;12.50;99.90
64951;DHT22;51482;47.014;7.652;2024-01-30T15:00:50;12.20;99.90
64951;DHT22;51482;47.014;7.652;2024-01-30T15:03:16;12.10;99.90
64951;DHT22;51482;47.014;7.652;2024-01-30T15:05:41;12.40;99.90
64951;DHT22;51482;47.014;7.652;2024-01-30T15:08:07;12.00;99.90
64951;DHT22;51482;47.014;7.652;2024-01-30T15:10:33;11.90;99.90
64951;DHT22;51482;47.014;7.652;2024-01-30T15:12:58;11.70;99.90
64951;DHT22;51482;47.014;7.652;2024-01-30T15:15:24;11.70;99.90
64951;DHT22;51482;47.014;7.652;2024-01-30T15:17:49;11.50;99.90
64951;DHT22;51482;47.014;7.652;2024-01-30T15:20:15;12.00;99.90
64951;DHT22;51482;47.014;7.652;2024-01-30T15:22:43;11.30;99.90
64951;DHT22;51482;47.014;7.652;2024-01-30T15:25:10;11.30;99.90
64951;DHT22;51482;47.014;7.652;2024-01-30T15:27:36;11.30;99.90
64951;DHT22;51482;47.014;7.652;2024-01-30T15:30:02;11.30;99.90
64951;DHT22;51482;47.014;7.652;2024-01-30T15:32:28;11.20;99.90
64951;DHT22;51482;47.014;7.652;2024-01-30T15:34:53;11.20;99.90
64951;DHT22;51482;47.014;7.652;2024-01-30T15:37:20;11.10;99.90
64951;DHT22;51482;47.014;7.652;2024-01-30T15:39:45;11.20;99.90